Fecha, hora, temperatura, viento dirección y velocidad, humedad y presión.

  • 22-05-2019 17:00:00 | 23.60°C | Sur |9.00 km/h | 44.00% | 1016.30 hPa
  • 22-05-2019 16:00:00 | 23.60°C | Sudeste |10.00 km/h | 47.00% | 1016.60 hPa
  • 22-05-2019 15:00:00 | 23.70°C | Sudeste |13.00 km/h | 52.00% | 1017.00 hPa
  • 22-05-2019 14:00:00 | 22.40°C | Este |17.00 km/h | 58.00% | 1016.90 hPa
  • 22-05-2019 13:00:00 | 22.80°C | Este |14.00 km/h | 56.00% | 1017.10 hPa
  • 22-05-2019 12:00:00 | 23.00°C | Sudoeste |6.00 km/h | 31.00% | 1017.10 hPa
  • 22-05-2019 11:00:00 | 22.50°C | Sur |11.00 km/h | 31.00% | 1016.50 hPa
  • 22-05-2019 10:00:00 | 21.90°C | Sur |6.00 km/h | 47.00% | 0.00 hPa
  • 22-05-2019 09:00:00 | 18.80°C | Este |3.00 km/h | 73.00% | 1016.20 hPa
  • 22-05-2019 08:00:00 | 13.00°C | Norte |4.00 km/h | 86.00% | 1016.20 hPa
  • 22-05-2019 07:00:00 | 13.00°C | Norte |5.00 km/h | 91.00% | 1015.80 hPa
  • 22-05-2019 06:00:00 | 13.00°C | Noroeste |2.00 km/h | 90.00% | 1015.60 hPa
  • 22-05-2019 05:00:00 | 13.30°C | Norte |4.00 km/h | 89.00% | 1015.40 hPa
  • 22-05-2019 04:00:00 | 13.20°C | Norte |6.00 km/h | 87.00% | 1015.30 hPa
  • 22-05-2019 03:00:00 | 12.90°C | Norte |8.00 km/h | 87.00% | 1015.60 hPa
  • 22-05-2019 02:00:00 | 14.20°C | Noroeste |5.00 km/h | 88.00% | 1015.50 hPa
  • 22-05-2019 01:00:00 | 14.50°C | Norte |8.00 km/h | 86.00% | 1015.50 hPa
  • 22-05-2019 00:00:00 | 15.00°C | Calma |0.00 km/h | 83.00% | 1015.60 hPa
  • 21-05-2019 23:00:00 | 16.40°C | Norte |7.00 km/h | 81.00% | 1015.60 hPa
  • 21-05-2019 22:00:00 | 17.40°C | Este |5.00 km/h | 81.00% | 1014.90 hPa
  • 21-05-2019 21:00:00 | 18.70°C | Sudeste |6.00 km/h | 76.00% | 1014.60 hPa
  • 21-05-2019 20:00:00 | 19.90°C | Este |10.00 km/h | 67.00% | 1014.40 hPa
  • 21-05-2019 19:00:00 | 20.50°C | Este |12.00 km/h | 65.00% | 1013.90 hPa
  • 21-05-2019 18:00:00 | 21.30°C | Este |13.00 km/h | 60.00% | 1013.80 hPa
    • diseño web asturias Información sobre el estado de las mareas, altura de la marejada, temperatura del agua y otros datos de Gijón en Asturias.

      Surf Gijón